createdAt,value
2019-02-24T00:01:24.949Z,19.36
2019-02-24T00:03:58.181Z,19.34
2019-02-24T00:06:31.427Z,19.33
2019-02-24T00:09:04.925Z,19.32
2019-02-24T00:11:38.949Z,19.31
2019-02-24T00:14:12.181Z,19.34
2019-02-24T00:16:45.441Z,19.30
2019-02-24T00:19:18.676Z,19.29
2019-02-24T00:21:51.935Z,19.29
2019-02-24T00:24:25.164Z,19.31
2019-02-24T00:26:58.418Z,19.26
2019-02-24T00:29:31.654Z,19.26
2019-02-24T00:32:04.909Z,19.21
2019-02-24T00:34:38.143Z,19.22
2019-02-24T00:37:11.401Z,19.16
2019-02-24T00:39:44.648Z,19.16
2019-02-24T00:42:18.075Z,19.19
2019-02-24T00:44:51.309Z,19.18
2019-02-24T00:47:24.715Z,19.14
2019-02-24T00:49:57.944Z,19.11
2019-02-24T00:52:31.191Z,19.12
2019-02-24T00:55:06.069Z,19.08
2019-02-24T00:57:39.325Z,19.05
2019-02-24T01:00:12.548Z,19.03
2019-02-24T01:02:47.068Z,19.00
2019-02-24T01:05:20.296Z,19.01
2019-02-24T01:07:53.557Z,19.02
2019-02-24T01:10:27.461Z,18.99
2019-02-24T01:13:00.702Z,18.98
2019-02-24T01:15:33.939Z,18.97
2019-02-24T01:18:07.457Z,18.96
2019-02-24T01:20:41.665Z,18.95
2019-02-24T01:23:14.914Z,18.92
2019-02-24T01:25:48.143Z,18.92
2019-02-24T01:28:25.341Z,18.89
2019-02-24T01:30:56.326Z,18.93
2019-02-24T01:33:29.560Z,18.87
2019-02-24T01:36:02.801Z,18.84
2019-02-24T01:38:36.055Z,18.83
2019-02-24T01:41:09.293Z,18.84
2019-02-24T01:43:42.542Z,18.80
2019-02-24T01:46:15.780Z,18.79
2019-02-24T01:48:49.035Z,18.80
2019-02-24T01:51:22.264Z,18.77
2019-02-24T01:53:55.520Z,18.77
2019-02-24T01:56:28.753Z,18.76
2019-02-24T01:59:02.000Z,18.76
2019-02-24T02:01:35.230Z,18.71
2019-02-24T02:04:08.489Z,18.75
2019-02-24T02:06:41.723Z,18.75
2019-02-24T02:09:14.967Z,18.74
2019-02-24T02:11:48.192Z,18.70
2019-02-24T02:14:21.445Z,18.71
2019-02-24T02:16:54.679Z,18.67
2019-02-24T02:19:27.935Z,18.62
2019-02-24T02:22:01.168Z,18.57
2019-02-24T02:24:34.419Z,18.60
2019-02-24T02:27:07.649Z,18.57
2019-02-24T02:29:40.903Z,18.58
2019-02-24T02:32:14.131Z,18.55
2019-02-24T02:34:47.379Z,18.53
2019-02-24T02:37:20.614Z,18.53
2019-02-24T02:39:53.859Z,18.49
2019-02-24T02:42:27.091Z,18.49
2019-02-24T02:45:00.590Z,18.48
2019-02-24T02:47:33.826Z,18.49
2019-02-24T02:50:07.079Z,18.49
2019-02-24T02:52:40.305Z,18.50
2019-02-24T02:55:13.548Z,18.47
2019-02-24T02:57:47.094Z,18.45
2019-02-24T03:00:28.443Z,18.40
2019-02-24T03:03:01.670Z,18.36
2019-02-24T03:05:34.925Z,18.38
2019-02-24T03:08:08.146Z,18.10
2019-02-24T03:10:41.400Z,18.39
2019-02-24T03:13:14.626Z,18.40
2019-02-24T03:15:47.855Z,18.41
2019-02-24T03:18:21.090Z,18.42
2019-02-24T03:20:54.346Z,18.43
2019-02-24T03:23:27.580Z,18.44
2019-02-24T03:26:00.845Z,18.43
2019-02-24T03:28:34.092Z,18.41
2019-02-24T03:31:07.341Z,18.40
2019-02-24T03:33:40.565Z,18.41
2019-02-24T03:36:13.809Z,18.42
2019-02-24T03:38:47.037Z,18.41
2019-02-24T03:41:20.300Z,18.42
2019-02-24T03:43:53.535Z,18.49
2019-02-24T03:46:26.786Z,18.52
2019-02-24T03:49:00.025Z,18.53
2019-02-24T03:51:33.271Z,18.51
2019-02-24T03:54:06.503Z,18.48
2019-02-24T03:56:39.756Z,18.48
2019-02-24T03:59:15.325Z,18.47
2019-02-24T04:01:47.941Z,18.49
2019-02-24T04:04:21.176Z,18.52
2019-02-24T04:06:54.423Z,18.54
2019-02-24T04:09:27.661Z,18.53
2019-02-24T04:12:00.905Z,18.52
2019-02-24T04:14:34.138Z,18.54
2019-02-24T04:17:07.372Z,18.54
2019-02-24T04:19:40.609Z,18.54
2019-02-24T04:22:13.859Z,18.53
2019-02-24T04:24:47.093Z,18.53
2019-02-24T04:27:20.347Z,18.56
2019-02-24T04:29:53.584Z,18.60
2019-02-24T04:32:26.831Z,18.65
2019-02-24T04:35:00.284Z,18.69
2019-02-24T04:37:33.584Z,18.68
2019-02-24T04:40:07.293Z,18.68
2019-02-24T04:42:40.540Z,18.65
2019-02-24T04:45:13.770Z,18.66
2019-02-24T04:47:47.019Z,18.66
2019-02-24T04:50:20.332Z,18.62
2019-02-24T04:52:53.508Z,18.65
2019-02-24T04:55:26.744Z,18.70
2019-02-24T04:57:59.989Z,18.74
2019-02-24T05:00:33.219Z,18.76
2019-02-24T05:03:06.476Z,18.80
2019-02-24T05:05:39.708Z,18.81
2019-02-24T05:08:12.963Z,18.79
2019-02-24T05:10:46.202Z,18.79
2019-02-24T05:13:19.461Z,18.75
2019-02-24T05:15:52.692Z,18.76
2019-02-24T05:18:25.950Z,18.76
2019-02-24T05:20:59.180Z,18.76
2019-02-24T05:23:32.431Z,18.75
2019-02-24T05:26:05.659Z,18.78
2019-02-24T05:28:38.910Z,18.84
2019-02-24T05:31:12.141Z,18.87
2019-02-24T05:33:45.392Z,18.92
2019-02-24T05:36:18.618Z,19.00
2019-02-24T05:38:51.873Z,19.10
2019-02-24T05:41:25.101Z,19.20
2019-02-24T05:43:58.367Z,19.32
2019-02-24T05:46:31.596Z,19.40
2019-02-24T05:49:04.837Z,19.48
2019-02-24T05:51:38.065Z,19.54
2019-02-24T05:54:11.317Z,19.59
2019-02-24T05:56:44.548Z,19.63
2019-02-24T05:59:17.797Z,19.68
2019-02-24T06:01:51.027Z,19.71
2019-02-24T06:04:24.264Z,19.73
2019-02-24T06:06:57.503Z,19.76
2019-02-24T06:09:31.827Z,19.74
2019-02-24T06:12:05.060Z,19.74
2019-02-24T06:14:38.305Z,19.79
2019-02-24T06:17:11.534Z,19.81
2019-02-24T06:19:44.781Z,19.84
2019-02-24T06:22:18.026Z,19.79
2019-02-24T06:24:51.272Z,19.84
2019-02-24T06:27:24.505Z,19.85
2019-02-24T06:30:04.601Z,19.88
2019-02-24T06:32:32.690Z,19.93
2019-02-24T06:35:07.175Z,19.98
2019-02-24T06:37:40.411Z,19.99
2019-02-24T06:40:13.648Z,20.03
2019-02-24T06:42:46.882Z,20.07
2019-02-24T06:45:20.127Z,20.10
2019-02-24T06:47:53.356Z,20.11
2019-02-24T06:50:35.143Z,20.15
2019-02-24T06:53:01.562Z,20.18
2019-02-24T06:55:34.830Z,20.21
2019-02-24T06:58:08.061Z,20.23
2019-02-24T07:00:41.307Z,20.23
2019-02-24T07:03:14.542Z,20.23
2019-02-24T07:05:47.793Z,20.22
2019-02-24T07:08:21.026Z,20.26
2019-02-24T07:10:54.293Z,20.33
2019-02-24T07:13:27.523Z,20.36
2019-02-24T07:16:00.767Z,20.40
2019-02-24T07:18:33.996Z,20.46
2019-02-24T07:21:07.249Z,20.50
2019-02-24T07:23:40.485Z,20.54
2019-02-24T07:26:13.734Z,20.60
2019-02-24T07:28:46.963Z,20.37
2019-02-24T07:31:20.201Z,20.61
2019-02-24T07:33:53.427Z,20.63
2019-02-24T07:36:26.668Z,20.68
2019-02-24T07:38:59.905Z,20.68
2019-02-24T07:41:33.159Z,20.64
2019-02-24T07:44:06.388Z,20.65
2019-02-24T07:46:39.635Z,20.65
2019-02-24T07:49:12.871Z,20.62
2019-02-24T07:51:46.120Z,20.57
2019-02-24T07:54:19.365Z,20.60
2019-02-24T07:56:52.618Z,20.68
2019-02-24T07:59:25.850Z,20.64
2019-02-24T08:01:59.098Z,20.60
2019-02-24T08:04:32.606Z,20.63
2019-02-24T08:07:05.850Z,20.59
2019-02-24T08:09:39.089Z,20.61
2019-02-24T08:12:12.328Z,20.61
2019-02-24T08:14:45.556Z,20.61
2019-02-24T08:17:18.800Z,20.57
2019-02-24T08:19:52.026Z,20.56
2019-02-24T08:22:25.271Z,20.59
2019-02-24T08:24:58.533Z,20.60
2019-02-24T08:27:31.782Z,20.58
2019-02-24T08:30:08.414Z,20.56
2019-02-24T08:32:41.654Z,20.56
2019-02-24T08:35:14.886Z,20.57
2019-02-24T08:37:48.125Z,20.57
2019-02-24T08:40:21.358Z,20.52
2019-02-24T08:42:54.615Z,20.52
2019-02-24T08:45:27.844Z,20.54
2019-02-24T08:48:01.089Z,20.52
2019-02-24T08:50:34.311Z,20.50
2019-02-24T08:53:07.563Z,20.48
2019-02-24T08:55:40.791Z,20.56
2019-02-24T08:58:14.031Z,20.59
2019-02-24T09:00:51.113Z,20.64
2019-02-24T09:03:22.207Z,20.69
2019-02-24T09:05:55.446Z,20.74
2019-02-24T09:08:28.695Z,20.69
2019-02-24T09:11:01.921Z,20.64
2019-02-24T09:13:35.174Z,20.60
2019-02-24T09:16:08.410Z,20.61
2019-02-24T09:18:41.672Z,20.60
2019-02-24T09:21:14.891Z,20.60
2019-02-24T09:23:48.128Z,20.58
2019-02-24T09:26:21.356Z,20.59
2019-02-24T09:28:54.601Z,20.59
2019-02-24T09:31:27.838Z,20.57
2019-02-24T09:34:01.095Z,20.58
2019-02-24T09:36:34.324Z,20.55
2019-02-24T09:39:07.566Z,20.56
2019-02-24T09:41:40.793Z,20.52
2019-02-24T09:44:14.031Z,20.53
2019-02-24T09:46:47.256Z,20.51
2019-02-24T09:49:20.514Z,20.54
2019-02-24T09:51:53.736Z,20.51
2019-02-24T09:54:26.982Z,20.57
2019-02-24T09:57:00.215Z,20.58
2019-02-24T09:59:33.461Z,20.58
2019-02-24T10:02:06.690Z,20.61
2019-02-24T10:04:39.935Z,20.62
2019-02-24T10:07:13.163Z,20.65
2019-02-24T10:09:46.397Z,20.81
2019-02-24T10:12:19.633Z,20.90
2019-02-24T10:14:52.881Z,20.96
2019-02-24T10:17:26.107Z,20.88
2019-02-24T10:19:59.348Z,20.90
2019-02-24T10:22:33.643Z,20.95
2019-02-24T10:25:07.641Z,20.98
2019-02-24T10:27:40.883Z,20.93
2019-02-24T10:30:17.080Z,20.69
2019-02-24T10:32:50.327Z,20.66
2019-02-24T10:35:23.629Z,20.58
2019-02-24T10:37:56.830Z,20.55
2019-02-24T10:40:30.084Z,20.54
2019-02-24T10:43:03.320Z,20.50
2019-02-24T10:45:36.583Z,20.50
2019-02-24T10:48:14.033Z,20.49
2019-02-24T10:50:44.750Z,20.50
2019-02-24T10:53:17.984Z,20.50
2019-02-24T10:55:51.266Z,20.50
2019-02-24T10:58:24.508Z,20.49
2019-02-24T11:00:57.760Z,20.50
2019-02-24T11:03:31.005Z,20.54
2019-02-24T11:06:04.324Z,20.52
2019-02-24T11:08:37.593Z,20.56
2019-02-24T11:11:10.828Z,20.58
2019-02-24T11:13:44.065Z,20.57
2019-02-24T11:16:17.328Z,20.57
2019-02-24T11:18:50.555Z,20.59
2019-02-24T11:21:23.802Z,20.57
2019-02-24T11:23:57.026Z,20.58
2019-02-24T11:26:30.283Z,20.57
2019-02-24T11:29:03.513Z,20.57
2019-02-24T11:31:38.604Z,20.57
2019-02-24T11:34:11.868Z,20.57
2019-02-24T11:36:46.086Z,20.56
2019-02-24T11:39:19.313Z,20.56
2019-02-24T11:41:52.556Z,20.55
2019-02-24T11:44:25.785Z,20.56
2019-02-24T11:46:59.032Z,20.57
2019-02-24T11:49:32.277Z,20.56
2019-02-24T11:52:05.524Z,20.56
2019-02-24T11:54:39.736Z,20.56
2019-02-24T11:57:12.973Z,20.58
2019-02-24T11:59:46.234Z,20.55
2019-02-24T12:02:19.495Z,20.54
2019-02-24T12:04:52.727Z,20.55
2019-02-24T12:07:25.984Z,20.56
2019-02-24T12:09:59.219Z,20.54
2019-02-24T12:12:32.467Z,20.51
2019-02-24T12:15:13.273Z,20.50
2019-02-24T12:17:46.531Z,20.50
2019-02-24T12:20:19.756Z,20.52
2019-02-24T12:22:53.005Z,20.56
2019-02-24T12:25:26.231Z,20.57
2019-02-24T12:27:59.481Z,20.51
2019-02-24T12:30:32.717Z,20.45
2019-02-24T12:33:05.972Z,20.45
2019-02-24T12:35:39.205Z,20.43
2019-02-24T12:38:12.459Z,20.43
2019-02-24T12:40:45.687Z,20.46
2019-02-24T12:43:18.942Z,20.47
2019-02-24T12:45:52.176Z,20.44
2019-02-24T12:48:25.408Z,20.42
2019-02-24T12:50:58.931Z,20.40
2019-02-24T12:53:32.187Z,20.40
2019-02-24T12:56:05.426Z,20.38
2019-02-24T12:58:38.663Z,20.38
2019-02-24T13:01:11.892Z,20.35
2019-02-24T13:03:45.128Z,20.33
2019-02-24T13:06:18.367Z,20.32
2019-02-24T13:08:51.605Z,20.31
2019-02-24T13:11:24.838Z,20.31
2019-02-24T13:13:58.102Z,20.32
2019-02-24T13:16:31.343Z,20.32
2019-02-24T13:19:04.601Z,20.29
2019-02-24T13:21:37.831Z,20.28
2019-02-24T13:24:11.079Z,20.30
2019-02-24T13:26:44.308Z,20.25
2019-02-24T13:29:17.546Z,20.23
2019-02-24T13:31:50.786Z,20.26
2019-02-24T13:34:24.024Z,20.25
2019-02-24T13:36:58.714Z,20.23
2019-02-24T13:39:32.233Z,20.22
2019-02-24T13:42:05.461Z,20.24
2019-02-24T13:44:38.705Z,20.22
2019-02-24T13:47:11.944Z,20.24
2019-02-24T13:49:45.188Z,20.35
2019-02-24T13:52:18.425Z,20.34
2019-02-24T13:54:51.699Z,20.32
2019-02-24T13:57:24.936Z,20.28
2019-02-24T13:59:58.185Z,20.29
2019-02-24T14:02:31.412Z,20.27
2019-02-24T14:05:04.659Z,20.27
2019-02-24T14:07:37.884Z,20.26
2019-02-24T14:10:12.226Z,20.23
2019-02-24T14:12:45.466Z,20.22
2019-02-24T19:37:40.916Z,21.78
2019-02-24T19:40:16.362Z,20.94
2019-02-24T19:42:50.568Z,20.72
2019-02-24T19:45:25.150Z,20.62
2019-02-24T19:47:58.388Z,20.62
2019-02-24T19:50:31.630Z,20.55
2019-02-24T19:53:04.857Z,20.60
2019-02-24T19:55:38.103Z,20.48
2019-02-24T19:58:11.335Z,20.49
2019-02-24T20:00:44.569Z,20.46
2019-02-24T20:03:17.796Z,20.40
2019-02-24T20:05:51.039Z,20.39
2019-02-24T20:08:24.272Z,20.34
2019-02-24T20:10:57.531Z,20.30
2019-02-24T20:13:30.766Z,20.32
2019-02-24T20:16:06.651Z,20.28
2019-02-24T20:18:39.889Z,20.25
2019-02-24T20:21:13.142Z,20.19
2019-02-24T20:23:46.386Z,20.12
2019-02-24T20:26:21.277Z,20.14
2019-02-24T20:28:54.524Z,20.14
2019-02-24T20:31:27.764Z,20.11
2019-02-24T20:34:01.026Z,20.17
2019-02-24T20:36:34.268Z,20.13
2019-02-24T20:39:09.139Z,20.11
2019-02-24T20:41:45.330Z,20.10
2019-02-24T20:44:18.566Z,20.01
2019-02-24T20:46:51.829Z,19.95
2019-02-24T20:49:25.075Z,19.96
2019-02-24T20:51:58.315Z,19.92
2019-02-24T20:54:31.565Z,19.96
2019-02-24T20:57:05.792Z,19.92
2019-02-24T20:59:39.117Z,19.96
2019-02-24T21:02:12.378Z,19.89
2019-02-24T21:04:45.850Z,19.86
2019-02-24T21:07:19.089Z,19.82
2019-02-24T21:09:52.332Z,19.79
2019-02-24T21:12:25.585Z,19.85
2019-02-24T21:14:58.816Z,20.16
2019-02-24T21:17:32.061Z,20.23
2019-02-24T21:20:08.794Z,20.18
2019-02-24T21:22:42.037Z,20.19
2019-02-24T21:25:15.275Z,20.22
2019-02-24T21:27:48.599Z,20.15
2019-02-24T21:30:21.844Z,20.14
2019-02-24T21:32:55.141Z,20.16
2019-02-24T21:35:28.382Z,20.16
2019-02-24T21:38:01.640Z,20.22
2019-02-24T21:40:35.849Z,20.23
2019-02-24T21:43:09.093Z,20.26
2019-02-24T21:45:42.595Z,20.22
2019-02-24T21:48:15.850Z,20.21
2019-02-24T21:50:49.079Z,20.18
2019-02-24T21:53:22.562Z,20.17
2019-02-24T21:55:56.036Z,20.11
2019-02-24T21:58:29.277Z,20.05
2019-02-24T22:01:02.519Z,20.00
2019-02-24T22:03:35.838Z,19.96
2019-02-24T22:06:09.069Z,19.94
2019-02-24T22:08:42.318Z,19.94
2019-02-24T22:11:15.550Z,19.91
2019-02-24T22:13:48.792Z,19.92
2019-02-24T22:16:22.025Z,19.88
2019-02-24T22:18:55.264Z,19.86
2019-02-24T22:21:28.498Z,19.88
2019-02-24T22:24:01.762Z,19.87
2019-02-24T22:26:34.993Z,19.81
2019-02-24T22:29:08.241Z,19.83
2019-02-24T22:31:41.473Z,19.82
2019-02-24T22:34:14.721Z,19.76
2019-02-24T22:36:47.959Z,19.77
2019-02-24T22:39:21.227Z,19.74
2019-02-24T22:41:54.529Z,19.80
2019-02-24T22:44:27.871Z,19.78
2019-02-24T22:47:01.451Z,19.75
2019-02-24T22:49:34.704Z,19.77
2019-02-24T22:52:07.944Z,19.75
2019-02-24T22:54:41.213Z,19.70
2019-02-24T22:57:14.452Z,19.71
2019-02-24T22:59:47.697Z,19.67
2019-02-24T23:02:21.707Z,19.66
2019-02-24T23:04:54.958Z,19.61
2019-02-24T23:07:28.185Z,19.62
2019-02-24T23:10:01.445Z,19.62
2019-02-24T23:12:35.849Z,19.63
2019-02-24T23:15:09.436Z,19.61
2019-02-24T23:17:42.671Z,19.60
2019-02-24T23:20:17.099Z,19.60
2019-02-24T23:22:50.649Z,19.59
2019-02-24T23:25:23.889Z,19.60
2019-02-24T23:27:57.121Z,19.54
2019-02-24T23:30:30.366Z,19.53
2019-02-24T23:33:03.591Z,19.53
2019-02-24T23:35:36.839Z,19.52
2019-02-24T23:38:10.083Z,19.51
2019-02-24T23:40:43.337Z,19.50
2019-02-24T23:43:16.571Z,19.49
2019-02-24T23:45:49.820Z,19.49
2019-02-24T23:48:23.049Z,19.47
2019-02-24T23:50:56.305Z,19.45
2019-02-24T23:53:29.542Z,19.44
2019-02-24T23:56:02.783Z,19.47
2019-02-24T23:58:36.015Z,19.42
